sensor_id;sensor_type;location;lat;lon;timestamp;P1;durP1;ratioP1;P2;durP2;ratioP2
12129;SDS011;6128;59.340;18.040;2023-06-26T00:00:31;2.07;;;1.93;;
12129;SDS011;6128;59.340;18.040;2023-06-26T00:02:58;2.50;;;2.10;;
12129;SDS011;6128;59.340;18.040;2023-06-26T00:05:26;1.63;;;1.53;;
12129;SDS011;6128;59.340;18.040;2023-06-26T00:07:55;2.63;;;1.73;;
12129;SDS011;6128;59.340;18.040;2023-06-26T00:10:26;4.30;;;2.20;;
12129;SDS011;6128;59.340;18.040;2023-06-26T00:12:54;3.20;;;2.10;;
12129;SDS011;6128;59.340;18.040;2023-06-26T00:15:21;2.20;;;2.00;;
12129;SDS011;6128;59.340;18.040;2023-06-26T00:17:49;3.87;;;2.20;;
12129;SDS011;6128;59.340;18.040;2023-06-26T00:20:16;1.87;;;1.77;;
12129;SDS011;6128;59.340;18.040;2023-06-26T00:22:44;5.03;;;2.03;;
12129;SDS011;6128;59.340;18.040;2023-06-26T00:25:11;1.93;;;1.73;;
12129;SDS011;6128;59.340;18.040;2023-06-26T00:27:40;2.57;;;2.00;;
12129;SDS011;6128;59.340;18.040;2023-06-26T00:30:07;2.90;;;1.80;;
12129;SDS011;6128;59.340;18.040;2023-06-26T00:32:35;3.53;;;1.83;;
12129;SDS011;6128;59.340;18.040;2023-06-26T00:35:02;2.73;;;1.77;;
12129;SDS011;6128;59.340;18.040;2023-06-26T00:37:30;1.93;;;1.67;;
12129;SDS011;6128;59.340;18.040;2023-06-26T00:39:57;2.83;;;2.37;;
12129;SDS011;6128;59.340;18.040;2023-06-26T00:42:24;4.63;;;2.37;;
12129;SDS011;6128;59.340;18.040;2023-06-26T00:44:52;2.07;;;1.87;;
12129;SDS011;6128;59.340;18.040;2023-06-26T00:47:21;2.70;;;2.17;;
12129;SDS011;6128;59.340;18.040;2023-06-26T00:49:48;2.93;;;1.93;;
12129;SDS011;6128;59.340;18.040;2023-06-26T00:52:15;2.10;;;1.90;;
12129;SDS011;6128;59.340;18.040;2023-06-26T00:54:43;2.40;;;2.00;;
12129;SDS011;6128;59.340;18.040;2023-06-26T00:57:10;3.10;;;2.07;;
12129;SDS011;6128;59.340;18.040;2023-06-26T00:59:37;2.10;;;1.90;;
12129;SDS011;6128;59.340;18.040;2023-06-26T01:02:06;2.03;;;1.80;;
12129;SDS011;6128;59.340;18.040;2023-06-26T01:04:33;3.87;;;2.13;;
12129;SDS011;6128;59.340;18.040;2023-06-26T01:07:01;2.30;;;2.13;;
12129;SDS011;6128;59.340;18.040;2023-06-26T01:09:29;2.10;;;1.90;;
12129;SDS011;6128;59.340;18.040;2023-06-26T01:11:57;2.30;;;1.80;;
12129;SDS011;6128;59.340;18.040;2023-06-26T01:14:24;2.13;;;1.93;;
12129;SDS011;6128;59.340;18.040;2023-06-26T01:16:51;2.20;;;2.00;;
12129;SDS011;6128;59.340;18.040;2023-06-26T01:19:24;2.43;;;2.23;;
12129;SDS011;6128;59.340;18.040;2023-06-26T01:21:56;4.80;;;2.20;;
12129;SDS011;6128;59.340;18.040;2023-06-26T01:24:28;3.43;;;2.20;;
12129;SDS011;6128;59.340;18.040;2023-06-26T01:27:03;3.63;;;2.47;;
12129;SDS011;6128;59.340;18.040;2023-06-26T01:29:31;4.07;;;2.47;;
12129;SDS011;6128;59.340;18.040;2023-06-26T01:32:00;3.03;;;2.23;;
12129;SDS011;6128;59.340;18.040;2023-06-26T01:34:27;2.40;;;2.20;;
12129;SDS011;6128;59.340;18.040;2023-06-26T01:36:55;2.30;;;1.97;;
12129;SDS011;6128;59.340;18.040;2023-06-26T01:39:23;3.00;;;2.13;;
12129;SDS011;6128;59.340;18.040;2023-06-26T01:41:50;2.60;;;2.20;;
12129;SDS011;6128;59.340;18.040;2023-06-26T01:44:21;3.97;;;2.47;;
12129;SDS011;6128;59.340;18.040;2023-06-26T01:47:02;5.20;;;2.33;;
12129;SDS011;6128;59.340;18.040;2023-06-26T01:49:38;3.17;;;2.27;;
12129;SDS011;6128;59.340;18.040;2023-06-26T01:52:12;3.57;;;2.07;;
12129;SDS011;6128;59.340;18.040;2023-06-26T01:54:47;2.60;;;2.40;;
12129;SDS011;6128;59.340;18.040;2023-06-26T01:57:20;3.40;;;2.40;;
12129;SDS011;6128;59.340;18.040;2023-06-26T01:59:51;2.60;;;2.40;;
12129;SDS011;6128;59.340;18.040;2023-06-26T02:02:20;3.37;;;2.50;;
12129;SDS011;6128;59.340;18.040;2023-06-26T02:04:50;2.17;;;1.97;;
12129;SDS011;6128;59.340;18.040;2023-06-26T02:07:17;2.17;;;1.97;;
12129;SDS011;6128;59.340;18.040;2023-06-26T02:09:44;2.70;;;2.50;;
12129;SDS011;6128;59.340;18.040;2023-06-26T02:12:11;2.43;;;2.23;;
12129;SDS011;6128;59.340;18.040;2023-06-26T02:14:39;2.10;;;2.00;;
12129;SDS011;6128;59.340;18.040;2023-06-26T02:17:08;2.37;;;1.90;;
12129;SDS011;6128;59.340;18.040;2023-06-26T02:19:35;2.40;;;2.20;;
12129;SDS011;6128;59.340;18.040;2023-06-26T02:22:10;2.43;;;2.23;;
12129;SDS011;6128;59.340;18.040;2023-06-26T02:24:37;2.50;;;2.20;;
12129;SDS011;6128;59.340;18.040;2023-06-26T02:27:04;3.40;;;2.20;;
12129;SDS011;6128;59.340;18.040;2023-06-26T02:29:31;2.27;;;2.07;;
12129;SDS011;6128;59.340;18.040;2023-06-26T02:31:58;2.97;;;2.10;;
12129;SDS011;6128;59.340;18.040;2023-06-26T02:34:27;2.70;;;2.50;;
12129;SDS011;6128;59.340;18.040;2023-06-26T02:36:55;2.20;;;2.10;;
12129;SDS011;6128;59.340;18.040;2023-06-26T02:39:23;2.50;;;2.30;;
12129;SDS011;6128;59.340;18.040;2023-06-26T02:41:51;2.30;;;2.17;;
12129;SDS011;6128;59.340;18.040;2023-06-26T02:44:18;3.00;;;2.50;;
12129;SDS011;6128;59.340;18.040;2023-06-26T02:46:46;2.53;;;2.33;;
12129;SDS011;6128;59.340;18.040;2023-06-26T02:49:13;2.33;;;2.13;;
12129;SDS011;6128;59.340;18.040;2023-06-26T02:51:42;2.50;;;2.40;;
12129;SDS011;6128;59.340;18.040;2023-06-26T02:54:09;2.37;;;2.17;;
12129;SDS011;6128;59.340;18.040;2023-06-26T02:56:36;2.33;;;2.13;;
12129;SDS011;6128;59.340;18.040;2023-06-26T02:59:03;3.03;;;2.10;;
12129;SDS011;6128;59.340;18.040;2023-06-26T03:01:32;2.63;;;2.43;;
12129;SDS011;6128;59.340;18.040;2023-06-26T03:03:59;3.20;;;2.53;;
12129;SDS011;6128;59.340;18.040;2023-06-26T03:06:26;2.60;;;2.37;;
12129;SDS011;6128;59.340;18.040;2023-06-26T03:08:55;2.23;;;2.13;;
12129;SDS011;6128;59.340;18.040;2023-06-26T03:11:22;2.43;;;2.23;;
12129;SDS011;6128;59.340;18.040;2023-06-26T03:13:49;2.50;;;2.10;;
12129;SDS011;6128;59.340;18.040;2023-06-26T03:16:17;2.23;;;2.10;;
12129;SDS011;6128;59.340;18.040;2023-06-26T03:18:45;2.97;;;2.33;;
12129;SDS011;6128;59.340;18.040;2023-06-26T03:21:13;2.40;;;1.90;;
12129;SDS011;6128;59.340;18.040;2023-06-26T03:23:41;2.40;;;2.20;;
12129;SDS011;6128;59.340;18.040;2023-06-26T03:26:09;2.57;;;2.17;;
12129;SDS011;6128;59.340;18.040;2023-06-26T03:28:39;2.17;;;2.00;;
12129;SDS011;6128;59.340;18.040;2023-06-26T03:31:07;2.53;;;1.97;;
12129;SDS011;6128;59.340;18.040;2023-06-26T03:33:34;1.93;;;1.80;;
12129;SDS011;6128;59.340;18.040;2023-06-26T03:36:01;2.10;;;2.00;;
12129;SDS011;6128;59.340;18.040;2023-06-26T03:38:29;2.03;;;1.93;;
12129;SDS011;6128;59.340;18.040;2023-06-26T03:40:56;2.00;;;1.90;;
12129;SDS011;6128;59.340;18.040;2023-06-26T03:43:25;2.50;;;1.87;;
12129;SDS011;6128;59.340;18.040;2023-06-26T03:45:52;2.20;;;2.07;;
12129;SDS011;6128;59.340;18.040;2023-06-26T03:48:19;2.70;;;1.80;;
12129;SDS011;6128;59.340;18.040;2023-06-26T03:50:46;2.00;;;1.90;;
12129;SDS011;6128;59.340;18.040;2023-06-26T03:53:14;1.73;;;1.63;;
12129;SDS011;6128;59.340;18.040;2023-06-26T03:55:41;1.90;;;1.73;;
12129;SDS011;6128;59.340;18.040;2023-06-26T03:58:08;3.70;;;2.37;;
12129;SDS011;6128;59.340;18.040;2023-06-26T04:00:37;1.80;;;1.70;;
12129;SDS011;6128;59.340;18.040;2023-06-26T04:03:05;2.87;;;2.37;;
12129;SDS011;6128;59.340;18.040;2023-06-26T04:05:32;1.90;;;1.80;;
12129;SDS011;6128;59.340;18.040;2023-06-26T04:07:59;2.13;;;1.97;;
12129;SDS011;6128;59.340;18.040;2023-06-26T04:10:26;3.37;;;2.20;;
12129;SDS011;6128;59.340;18.040;2023-06-26T04:12:53;3.90;;;2.87;;
12129;SDS011;6128;59.340;18.040;2023-06-26T04:15:21;10.70;;;6.50;;
12129;SDS011;6128;59.340;18.040;2023-06-26T04:17:49;2.40;;;2.17;;
12129;SDS011;6128;59.340;18.040;2023-06-26T04:20:16;4.00;;;1.60;;
12129;SDS011;6128;59.340;18.040;2023-06-26T04:22:43;2.40;;;2.20;;
12129;SDS011;6128;59.340;18.040;2023-06-26T04:25:10;3.93;;;2.00;;
12129;SDS011;6128;59.340;18.040;2023-06-26T04:27:38;2.07;;;1.87;;
12129;SDS011;6128;59.340;18.040;2023-06-26T04:30:06;1.90;;;1.80;;
12129;SDS011;6128;59.340;18.040;2023-06-26T04:32:34;2.63;;;2.20;;
12129;SDS011;6128;59.340;18.040;2023-06-26T04:35:02;1.83;;;1.73;;
12129;SDS011;6128;59.340;18.040;2023-06-26T04:37:32;2.03;;;1.90;;
12129;SDS011;6128;59.340;18.040;2023-06-26T04:39:59;1.83;;;1.73;;
12129;SDS011;6128;59.340;18.040;2023-06-26T04:42:29;2.83;;;1.80;;
12129;SDS011;6128;59.340;18.040;2023-06-26T04:44:57;2.70;;;1.90;;
12129;SDS011;6128;59.340;18.040;2023-06-26T04:47:24;2.67;;;2.20;;
12129;SDS011;6128;59.340;18.040;2023-06-26T04:49:51;4.10;;;1.80;;
12129;SDS011;6128;59.340;18.040;2023-06-26T04:52:19;2.00;;;1.73;;
12129;SDS011;6128;59.340;18.040;2023-06-26T04:54:46;2.33;;;1.60;;
12129;SDS011;6128;59.340;18.040;2023-06-26T04:57:14;1.93;;;1.77;;
12129;SDS011;6128;59.340;18.040;2023-06-26T04:59:43;2.20;;;1.73;;
12129;SDS011;6128;59.340;18.040;2023-06-26T05:02:10;2.73;;;2.03;;
12129;SDS011;6128;59.340;18.040;2023-06-26T05:04:40;1.77;;;1.67;;
12129;SDS011;6128;59.340;18.040;2023-06-26T05:07:07;2.03;;;1.83;;
12129;SDS011;6128;59.340;18.040;2023-06-26T05:09:36;2.20;;;2.00;;
12129;SDS011;6128;59.340;18.040;2023-06-26T05:12:04;1.90;;;1.70;;
12129;SDS011;6128;59.340;18.040;2023-06-26T05:14:31;1.70;;;1.60;;
12129;SDS011;6128;59.340;18.040;2023-06-26T05:16:59;1.87;;;1.77;;
12129;SDS011;6128;59.340;18.040;2023-06-26T05:19:26;2.00;;;1.80;;
12129;SDS011;6128;59.340;18.040;2023-06-26T05:21:53;1.80;;;1.70;;
12129;SDS011;6128;59.340;18.040;2023-06-26T05:24:23;1.60;;;1.50;;
12129;SDS011;6128;59.340;18.040;2023-06-26T05:26:53;1.70;;;1.60;;
12129;SDS011;6128;59.340;18.040;2023-06-26T05:29:20;2.20;;;1.40;;
12129;SDS011;6128;59.340;18.040;2023-06-26T05:31:48;1.53;;;1.43;;
12129;SDS011;6128;59.340;18.040;2023-06-26T05:34:17;1.80;;;1.70;;
12129;SDS011;6128;59.340;18.040;2023-06-26T05:36:49;1.60;;;1.50;;
12129;SDS011;6128;59.340;18.040;2023-06-26T05:39:17;2.27;;;1.60;;
12129;SDS011;6128;59.340;18.040;2023-06-26T05:41:45;1.50;;;1.40;;
12129;SDS011;6128;59.340;18.040;2023-06-26T05:44:15;1.93;;;1.63;;
12129;SDS011;6128;59.340;18.040;2023-06-26T05:46:42;1.42;;;1.33;;
12129;SDS011;6128;59.340;18.040;2023-06-26T05:49:09;1.70;;;1.20;;
12129;SDS011;6128;59.340;18.040;2023-06-26T05:51:37;1.27;;;1.17;;
12129;SDS011;6128;59.340;18.040;2023-06-26T05:54:04;1.70;;;1.60;;
12129;SDS011;6128;59.340;18.040;2023-06-26T05:56:32;1.98;;;1.50;;
12129;SDS011;6128;59.340;18.040;2023-06-26T05:59:00;1.52;;;1.40;;
12129;SDS011;6128;59.340;18.040;2023-06-26T06:01:30;1.63;;;1.35;;
12129;SDS011;6128;59.340;18.040;2023-06-26T06:03:58;2.80;;;1.40;;
12129;SDS011;6128;59.340;18.040;2023-06-26T06:06:25;3.75;;;1.73;;
12129;SDS011;6128;59.340;18.040;2023-06-26T06:08:53;1.33;;;1.10;;
12129;SDS011;6128;59.340;18.040;2023-06-26T06:11:20;4.05;;;1.35;;
12129;SDS011;6128;59.340;18.040;2023-06-26T06:13:47;2.88;;;1.63;;
12129;SDS011;6128;59.340;18.040;2023-06-26T06:16:14;1.67;;;1.30;;
12129;SDS011;6128;59.340;18.040;2023-06-26T06:18:43;2.03;;;1.30;;
12129;SDS011;6128;59.340;18.040;2023-06-26T06:21:10;2.63;;;1.30;;
12129;SDS011;6128;59.340;18.040;2023-06-26T06:23:37;2.08;;;1.23;;
12129;SDS011;6128;59.340;18.040;2023-06-26T06:26:05;2.70;;;1.27;;
12129;SDS011;6128;59.340;18.040;2023-06-26T06:28:32;1.63;;;1.23;;
12129;SDS011;6128;59.340;18.040;2023-06-26T06:30:59;1.20;;;1.10;;
12129;SDS011;6128;59.340;18.040;2023-06-26T06:33:26;0.90;;;0.90;;
12129;SDS011;6128;59.340;18.040;2023-06-26T06:35:55;1.33;;;1.17;;
12129;SDS011;6128;59.340;18.040;2023-06-26T06:38:22;1.52;;;1.35;;
12129;SDS011;6128;59.340;18.040;2023-06-26T06:40:50;1.73;;;1.15;;
12129;SDS011;6128;59.340;18.040;2023-06-26T06:43:17;2.05;;;1.13;;
12129;SDS011;6128;59.340;18.040;2023-06-26T06:45:45;1.15;;;1.05;;
12129;SDS011;6128;59.340;18.040;2023-06-26T06:48:12;1.55;;;0.98;;
12129;SDS011;6128;59.340;18.040;2023-06-26T06:50:39;2.33;;;1.20;;
12129;SDS011;6128;59.340;18.040;2023-06-26T06:53:08;3.35;;;1.50;;
12129;SDS011;6128;59.340;18.040;2023-06-26T06:55:35;1.95;;;1.13;;
12129;SDS011;6128;59.340;18.040;2023-06-26T06:58:02;1.52;;;1.15;;
12129;SDS011;6128;59.340;18.040;2023-06-26T07:00:29;1.23;;;1.05;;
12129;SDS011;6128;59.340;18.040;2023-06-26T07:02:57;1.27;;;1.15;;
12129;SDS011;6128;59.340;18.040;2023-06-26T07:05:25;1.30;;;1.00;;
12129;SDS011;6128;59.340;18.040;2023-06-26T07:07:52;4.38;;;1.63;;
12129;SDS011;6128;59.340;18.040;2023-06-26T07:10:21;1.13;;;1.02;;
12129;SDS011;6128;59.340;18.040;2023-06-26T07:12:48;1.15;;;1.00;;
12129;SDS011;6128;59.340;18.040;2023-06-26T07:15:16;1.10;;;1.00;;
12129;SDS011;6128;59.340;18.040;2023-06-26T07:17:44;1.30;;;1.00;;
12129;SDS011;6128;59.340;18.040;2023-06-26T07:20:11;1.48;;;1.38;;
12129;SDS011;6128;59.340;18.040;2023-06-26T07:22:42;1.30;;;0.93;;
12129;SDS011;6128;59.340;18.040;2023-06-26T07:25:10;2.10;;;1.20;;
12129;SDS011;6128;59.340;18.040;2023-06-26T07:27:39;1.58;;;0.77;;
12129;SDS011;6128;59.340;18.040;2023-06-26T07:30:07;3.25;;;1.00;;
12129;SDS011;6128;59.340;18.040;2023-06-26T07:32:36;1.30;;;1.00;;
12129;SDS011;6128;59.340;18.040;2023-06-26T07:35:04;1.95;;;1.10;;
12129;SDS011;6128;59.340;18.040;2023-06-26T07:37:31;1.00;;;0.90;;
12129;SDS011;6128;59.340;18.040;2023-06-26T07:39:58;1.10;;;1.00;;
12129;SDS011;6128;59.340;18.040;2023-06-26T07:42:26;2.05;;;1.13;;
12129;SDS011;6128;59.340;18.040;2023-06-26T07:44:55;0.95;;;0.93;;
12129;SDS011;6128;59.340;18.040;2023-06-26T07:47:23;1.23;;;1.13;;
12129;SDS011;6128;59.340;18.040;2023-06-26T07:49:50;1.55;;;1.20;;
12129;SDS011;6128;59.340;18.040;2023-06-26T07:52:17;1.00;;;0.90;;
12129;SDS011;6128;59.340;18.040;2023-06-26T07:54:48;2.42;;;1.08;;
12129;SDS011;6128;59.340;18.040;2023-06-26T07:57:15;1.35;;;1.20;;
12129;SDS011;6128;59.340;18.040;2023-06-26T07:59:42;2.63;;;1.20;;
12129;SDS011;6128;59.340;18.040;2023-06-26T08:02:10;2.45;;;1.10;;
12129;SDS011;6128;59.340;18.040;2023-06-26T08:04:37;1.13;;;1.02;;
12129;SDS011;6128;59.340;18.040;2023-06-26T08:07:05;1.88;;;1.10;;
12129;SDS011;6128;59.340;18.040;2023-06-26T08:09:33;1.88;;;1.33;;
12129;SDS011;6128;59.340;18.040;2023-06-26T08:12:00;1.92;;;1.30;;
12129;SDS011;6128;59.340;18.040;2023-06-26T08:14:27;1.15;;;1.05;;
12129;SDS011;6128;59.340;18.040;2023-06-26T08:16:56;4.10;;;1.50;;
12129;SDS011;6128;59.340;18.040;2023-06-26T08:19:26;1.02;;;1.02;;
12129;SDS011;6128;59.340;18.040;2023-06-26T08:21:53;1.60;;;1.23;;
12129;SDS011;6128;59.340;18.040;2023-06-26T08:24:20;1.23;;;1.10;;
12129;SDS011;6128;59.340;18.040;2023-06-26T08:26:47;1.30;;;1.20;;
12129;SDS011;6128;59.340;18.040;2023-06-26T08:29:15;1.20;;;1.10;;
12129;SDS011;6128;59.340;18.040;2023-06-26T08:31:42;1.38;;;1.27;;
12129;SDS011;6128;59.340;18.040;2023-06-26T08:34:10;1.77;;;0.90;;
12129;SDS011;6128;59.340;18.040;2023-06-26T08:36:39;1.30;;;1.20;;
12129;SDS011;6128;59.340;18.040;2023-06-26T08:39:06;1.45;;;0.90;;
12129;SDS011;6128;59.340;18.040;2023-06-26T08:41:34;1.30;;;1.08;;
12129;SDS011;6128;59.340;18.040;2023-06-26T08:44:02;1.23;;;1.13;;
12129;SDS011;6128;59.340;18.040;2023-06-26T08:46:30;1.33;;;1.00;;
12129;SDS011;6128;59.340;18.040;2023-06-26T08:49:00;1.20;;;0.90;;
12129;SDS011;6128;59.340;18.040;2023-06-26T08:51:32;0.80;;;0.80;;
12129;SDS011;6128;59.340;18.040;2023-06-26T08:54:04;1.73;;;1.23;;
12129;SDS011;6128;59.340;18.040;2023-06-26T08:56:35;2.22;;;1.15;;
12129;SDS011;6128;59.340;18.040;2023-06-26T08:59:04;1.23;;;1.13;;
12129;SDS011;6128;59.340;18.040;2023-06-26T09:01:35;1.67;;;1.00;;
12129;SDS011;6128;59.340;18.040;2023-06-26T09:04:02;1.38;;;1.20;;
12129;SDS011;6128;59.340;18.040;2023-06-26T09:06:30;1.70;;;1.20;;
12129;SDS011;6128;59.340;18.040;2023-06-26T09:08:57;2.15;;;1.20;;
12129;SDS011;6128;59.340;18.040;2023-06-26T09:11:26;1.13;;;1.00;;
12129;SDS011;6128;59.340;18.040;2023-06-26T09:13:53;1.83;;;1.02;;
12129;SDS011;6128;59.340;18.040;2023-06-26T09:16:23;1.75;;;1.50;;
12129;SDS011;6128;59.340;18.040;2023-06-26T09:18:52;1.67;;;0.98;;
12129;SDS011;6128;59.340;18.040;2023-06-26T09:21:19;2.15;;;1.20;;
12129;SDS011;6128;59.340;18.040;2023-06-26T09:23:49;1.02;;;0.93;;
12129;SDS011;6128;59.340;18.040;2023-06-26T09:26:17;1.95;;;1.20;;
12129;SDS011;6128;59.340;18.040;2023-06-26T09:28:46;1.85;;;1.00;;
12129;SDS011;6128;59.340;18.040;2023-06-26T09:31:15;1.33;;;1.10;;
12129;SDS011;6128;59.340;18.040;2023-06-26T09:33:46;1.10;;;1.00;;
12129;SDS011;6128;59.340;18.040;2023-06-26T09:36:18;1.10;;;1.10;;
12129;SDS011;6128;59.340;18.040;2023-06-26T09:38:47;1.35;;;1.25;;
12129;SDS011;6128;59.340;18.040;2023-06-26T09:41:15;1.17;;;1.08;;
12129;SDS011;6128;59.340;18.040;2023-06-26T09:43:48;1.52;;;1.20;;
12129;SDS011;6128;59.340;18.040;2023-06-26T09:46:16;1.33;;;1.23;;
12129;SDS011;6128;59.340;18.040;2023-06-26T09:48:44;1.00;;;1.00;;
12129;SDS011;6128;59.340;18.040;2023-06-26T09:51:11;1.70;;;1.40;;
12129;SDS011;6128;59.340;18.040;2023-06-26T09:53:38;1.48;;;1.13;;
12129;SDS011;6128;59.340;18.040;2023-06-26T09:56:10;3.85;;;1.60;;
12129;SDS011;6128;59.340;18.040;2023-06-26T09:58:42;1.25;;;1.13;;
12129;SDS011;6128;59.340;18.040;2023-06-26T10:01:12;1.33;;;1.20;;
12129;SDS011;6128;59.340;18.040;2023-06-26T10:03:39;2.03;;;0.98;;
12129;SDS011;6128;59.340;18.040;2023-06-26T10:06:08;0.90;;;0.90;;
12129;SDS011;6128;59.340;18.040;2023-06-26T10:08:38;1.10;;;1.00;;
12129;SDS011;6128;59.340;18.040;2023-06-26T10:11:06;1.60;;;1.02;;
12129;SDS011;6128;59.340;18.040;2023-06-26T10:13:38;2.28;;;1.02;;
12129;SDS011;6128;59.340;18.040;2023-06-26T10:16:12;1.98;;;0.98;;
12129;SDS011;6128;59.340;18.040;2023-06-26T10:18:42;1.48;;;0.90;;
12129;SDS011;6128;59.340;18.040;2023-06-26T10:21:10;2.15;;;1.00;;
12129;SDS011;6128;59.340;18.040;2023-06-26T10:23:40;0.70;;;0.70;;
12129;SDS011;6128;59.340;18.040;2023-06-26T10:26:10;1.25;;;0.93;;
12129;SDS011;6128;59.340;18.040;2023-06-26T10:28:40;0.70;;;0.70;;
12129;SDS011;6128;59.340;18.040;2023-06-26T10:31:09;1.75;;;0.70;;
12129;SDS011;6128;59.340;18.040;2023-06-26T10:33:38;2.97;;;0.98;;
12129;SDS011;6128;59.340;18.040;2023-06-26T10:36:13;3.53;;;1.27;;
12129;SDS011;6128;59.340;18.040;2023-06-26T10:38:49;0.93;;;0.80;;
12129;SDS011;6128;59.340;18.040;2023-06-26T10:41:21;1.65;;;0.85;;
12129;SDS011;6128;59.340;18.040;2023-06-26T10:43:50;0.98;;;0.93;;
12129;SDS011;6128;59.340;18.040;2023-06-26T10:46:19;0.90;;;0.80;;
12129;SDS011;6128;59.340;18.040;2023-06-26T10:48:58;0.68;;;0.68;;
12129;SDS011;6128;59.340;18.040;2023-06-26T10:51:26;0.80;;;0.80;;
12129;SDS011;6128;59.340;18.040;2023-06-26T10:53:54;0.98;;;0.63;;
12129;SDS011;6128;59.340;18.040;2023-06-26T10:56:22;0.88;;;0.60;;
12129;SDS011;6128;59.340;18.040;2023-06-26T10:59:11;0.75;;;0.75;;
12129;SDS011;6128;59.340;18.040;2023-06-26T11:01:43;0.80;;;0.80;;
12129;SDS011;6128;59.340;18.040;2023-06-26T11:04:11;0.60;;;0.60;;
12129;SDS011;6128;59.340;18.040;2023-06-26T11:06:40;2.28;;;1.05;;
12129;SDS011;6128;59.340;18.040;2023-06-26T11:09:09;2.45;;;0.65;;
12129;SDS011;6128;59.340;18.040;2023-06-26T11:11:56;0.77;;;0.77;;
12129;SDS011;6128;59.340;18.040;2023-06-26T11:14:29;2.15;;;0.70;;
12129;SDS011;6128;59.340;18.040;2023-06-26T11:16:59;0.93;;;0.70;;
12129;SDS011;6128;59.340;18.040;2023-06-26T11:19:29;2.78;;;0.70;;
12129;SDS011;6128;59.340;18.040;2023-06-26T11:22:02;1.48;;;0.65;;
12129;SDS011;6128;59.340;18.040;2023-06-26T11:24:33;1.92;;;1.00;;
12129;SDS011;6128;59.340;18.040;2023-06-26T11:27:01;0.77;;;0.75;;
12129;SDS011;6128;59.340;18.040;2023-06-26T11:29:29;1.50;;;0.80;;
12129;SDS011;6128;59.340;18.040;2023-06-26T11:32:02;1.38;;;0.80;;
12129;SDS011;6128;59.340;18.040;2023-06-26T11:34:32;1.55;;;0.70;;
12129;SDS011;6128;59.340;18.040;2023-06-26T11:37:00;1.95;;;0.88;;
12129;SDS011;6128;59.340;18.040;2023-06-26T11:39:30;1.67;;;0.50;;
12129;SDS011;6128;59.340;18.040;2023-06-26T11:41:58;1.90;;;0.73;;
12129;SDS011;6128;59.340;18.040;2023-06-26T11:44:29;2.42;;;0.70;;
12129;SDS011;6128;59.340;18.040;2023-06-26T11:46:57;0.90;;;0.68;;
12129;SDS011;6128;59.340;18.040;2023-06-26T11:49:27;0.50;;;0.50;;
12129;SDS011;6128;59.340;18.040;2023-06-26T11:51:55;0.80;;;0.60;;
12129;SDS011;6128;59.340;18.040;2023-06-26T11:54:25;2.33;;;1.02;;
12129;SDS011;6128;59.340;18.040;2023-06-26T11:56:54;0.40;;;0.40;;
12129;SDS011;6128;59.340;18.040;2023-06-26T11:59:32;1.67;;;0.85;;
12129;SDS011;6128;59.340;18.040;2023-06-26T12:02:00;1.25;;;0.60;;
12129;SDS011;6128;59.340;18.040;2023-06-26T12:04:33;0.40;;;0.40;;
12129;SDS011;6128;59.340;18.040;2023-06-26T12:07:02;0.77;;;0.47;;
12129;SDS011;6128;59.340;18.040;2023-06-26T12:09:32;0.85;;;0.50;;
12129;SDS011;6128;59.340;18.040;2023-06-26T12:12:00;0.90;;;0.60;;
12129;SDS011;6128;59.340;18.040;2023-06-26T12:14:28;1.45;;;0.60;;
12129;SDS011;6128;59.340;18.040;2023-06-26T12:16:55;0.40;;;0.40;;
12129;SDS011;6128;59.340;18.040;2023-06-26T12:19:30;0.77;;;0.60;;
12129;SDS011;6128;59.340;18.040;2023-06-26T12:21:58;0.98;;;0.50;;
12129;SDS011;6128;59.340;18.040;2023-06-26T12:24:25;0.70;;;0.50;;
12129;SDS011;6128;59.340;18.040;2023-06-26T12:26:53;2.10;;;0.57;;
12129;SDS011;6128;59.340;18.040;2023-06-26T12:29:24;0.40;;;0.40;;
12129;SDS011;6128;59.340;18.040;2023-06-26T12:31:58;0.82;;;0.70;;
12129;SDS011;6128;59.340;18.040;2023-06-26T12:34:27;1.45;;;0.60;;
12129;SDS011;6128;59.340;18.040;2023-06-26T12:36:59;0.40;;;0.40;;
12129;SDS011;6128;59.340;18.040;2023-06-26T12:39:29;1.30;;;0.50;;
12129;SDS011;6128;59.340;18.040;2023-06-26T12:42:12;1.17;;;1.08;;
12129;SDS011;6128;59.340;18.040;2023-06-26T12:44:40;0.60;;;0.60;;
12129;SDS011;6128;59.340;18.040;2023-06-26T12:47:07;0.70;;;0.60;;
12129;SDS011;6128;59.340;18.040;2023-06-26T12:49:35;1.33;;;0.60;;
12129;SDS011;6128;59.340;18.040;2023-06-26T12:52:05;0.50;;;0.50;;
12129;SDS011;6128;59.340;18.040;2023-06-26T12:54:34;1.65;;;0.50;;
12129;SDS011;6128;59.340;18.040;2023-06-26T12:57:02;1.13;;;0.60;;
12129;SDS011;6128;59.340;18.040;2023-06-26T12:59:29;1.17;;;0.57;;
12129;SDS011;6128;59.340;18.040;2023-06-26T13:01:57;1.75;;;0.70;;
12129;SDS011;6128;59.340;18.040;2023-06-26T13:04:24;0.75;;;0.50;;
12129;SDS011;6128;59.340;18.040;2023-06-26T13:06:52;0.80;;;0.60;;
12129;SDS011;6128;59.340;18.040;2023-06-26T13:09:22;1.90;;;0.88;;
12129;SDS011;6128;59.340;18.040;2023-06-26T13:11:50;1.85;;;0.57;;
12129;SDS011;6128;59.340;18.040;2023-06-26T13:14:17;1.27;;;0.70;;
12129;SDS011;6128;59.340;18.040;2023-06-26T13:16:44;1.25;;;0.60;;
12129;SDS011;6128;59.340;18.040;2023-06-26T13:19:13;0.70;;;0.60;;
12129;SDS011;6128;59.340;18.040;2023-06-26T13:21:40;1.75;;;0.77;;
12129;SDS011;6128;59.340;18.040;2023-06-26T13:24:08;2.03;;;0.82;;
12129;SDS011;6128;59.340;18.040;2023-06-26T13:26:37;0.77;;;0.60;;
12129;SDS011;6128;59.340;18.040;2023-06-26T13:29:04;2.08;;;0.80;;
12129;SDS011;6128;59.340;18.040;2023-06-26T13:31:31;0.82;;;0.60;;
12129;SDS011;6128;59.340;18.040;2023-06-26T13:33:59;1.38;;;0.80;;
12129;SDS011;6128;59.340;18.040;2023-06-26T13:36:27;0.70;;;0.70;;
12129;SDS011;6128;59.340;18.040;2023-06-26T13:38:59;0.63;;;0.52;;
12129;SDS011;6128;59.340;18.040;2023-06-26T13:41:27;1.23;;;0.80;;
12129;SDS011;6128;59.340;18.040;2023-06-26T13:43:56;0.73;;;0.73;;
12129;SDS011;6128;59.340;18.040;2023-06-26T13:46:23;1.63;;;0.75;;
12129;SDS011;6128;59.340;18.040;2023-06-26T13:48:52;0.85;;;0.80;;
12129;SDS011;6128;59.340;18.040;2023-06-26T13:51:20;1.42;;;0.80;;
12129;SDS011;6128;59.340;18.040;2023-06-26T13:53:47;1.42;;;0.63;;
12129;SDS011;6128;59.340;18.040;2023-06-26T13:56:14;1.58;;;0.90;;
12129;SDS011;6128;59.340;18.040;2023-06-26T13:58:41;0.95;;;0.95;;
12129;SDS011;6128;59.340;18.040;2023-06-26T14:01:10;4.50;;;0.95;;
12129;SDS011;6128;59.340;18.040;2023-06-26T14:03:38;0.63;;;0.50;;
12129;SDS011;6128;59.340;18.040;2023-06-26T14:06:05;0.85;;;0.85;;
12129;SDS011;6128;59.340;18.040;2023-06-26T14:08:32;0.80;;;0.80;;
12129;SDS011;6128;59.340;18.040;2023-06-26T14:10:59;1.23;;;0.70;;
12129;SDS011;6128;59.340;18.040;2023-06-26T14:13:26;0.98;;;0.70;;
12129;SDS011;6128;59.340;18.040;2023-06-26T14:15:54;0.90;;;0.73;;
12129;SDS011;6128;59.340;18.040;2023-06-26T14:18:23;0.85;;;0.70;;
12129;SDS011;6128;59.340;18.040;2023-06-26T14:20:50;1.25;;;0.80;;
12129;SDS011;6128;59.340;18.040;2023-06-26T14:23:18;0.98;;;0.50;;
12129;SDS011;6128;59.340;18.040;2023-06-26T14:25:46;0.73;;;0.73;;
12129;SDS011;6128;59.340;18.040;2023-06-26T14:28:13;0.82;;;0.77;;
12129;SDS011;6128;59.340;18.040;2023-06-26T14:30:40;0.60;;;0.60;;
12129;SDS011;6128;59.340;18.040;2023-06-26T14:33:07;1.05;;;0.82;;
12129;SDS011;6128;59.340;18.040;2023-06-26T14:35:35;1.25;;;0.75;;
12129;SDS011;6128;59.340;18.040;2023-06-26T14:38:03;2.60;;;0.88;;
12129;SDS011;6128;59.340;18.040;2023-06-26T14:40:30;2.10;;;0.80;;
12129;SDS011;6128;59.340;18.040;2023-06-26T14:42:58;1.30;;;0.80;;
12129;SDS011;6128;59.340;18.040;2023-06-26T14:45:25;0.70;;;0.70;;
12129;SDS011;6128;59.340;18.040;2023-06-26T14:47:52;0.60;;;0.57;;
12129;SDS011;6128;59.340;18.040;2023-06-26T14:50:20;0.80;;;0.80;;
12129;SDS011;6128;59.340;18.040;2023-06-26T14:52:48;3.55;;;1.10;;
12129;SDS011;6128;59.340;18.040;2023-06-26T14:55:15;1.85;;;0.85;;